Time;durP1;ratioP1;P1;durP2;ratioP2;P2;SDS_P1;SDS_P2;PMS_P1;PMS_P2;Temp;Humidity;BMP_temperature;BMP_pressure;BME280_temperature;BME280_humidity;BME280_pressure;Samples;Min_cycle;Max_cycle;Signal;HPM_P1;HPM_P2
2023/06/24 00:00:23;;;;;;;1.55;1.20;;;19.60;99.90;;;;;;5019375;28;20037;-73
2023/06/24 00:03:09;;;;;;;1.98;1.25;;;19.60;99.90;;;;;;5020491;28;20607;-74
2023/06/24 00:05:56;;;;;;;1.58;1.20;;;19.60;99.90;;;;;;5020790;28;20041;-74
2023/06/24 00:08:42;;;;;;;1.88;1.30;;;19.60;99.90;;;;;;5008502;28;20490;-74
2023/06/24 00:11:29;;;;;;;2.53;1.40;;;19.60;99.90;;;;;;5026007;28;20029;-74
2023/06/24 00:14:15;;;;;;;2.47;1.50;;;19.60;99.90;;;;;;5028648;28;20033;-74
2023/06/24 00:17:01;;;;;;;1.85;1.30;;;19.60;99.90;;;;;;5024609;28;20088;-74
2023/06/24 00:19:47;;;;;;;1.90;1.10;;;19.60;99.90;;;;;;5031060;28;20466;-74
2023/06/24 00:22:33;;;;;;;2.72;1.70;;;19.60;99.90;;;;;;5018459;28;20038;-74
2023/06/24 00:25:19;;;;;;;2.00;1.30;;;19.60;99.90;;;;;;5013161;28;20152;-73
2023/06/24 00:28:05;;;;;;;2.95;1.58;;;19.60;99.90;;;;;;5012172;28;20033;-73
2023/06/24 00:30:51;;;;;;;2.38;1.38;;;19.60;99.90;;;;;;5021304;28;20030;-73
2023/06/24 00:33:37;;;;;;;2.72;1.63;;;19.60;99.90;;;;;;5021398;28;20037;-73
2023/06/24 00:36:23;;;;;;;2.67;1.75;;;19.60;99.90;;;;;;5023301;28;20045;-73
2023/06/24 00:39:09;;;;;;;1.48;1.17;;;19.50;99.90;;;;;;5024703;28;20033;-74
2023/06/24 00:41:55;;;;;;;2.08;1.30;;;19.50;99.90;;;;;;5012349;28;20065;-74
2023/06/24 00:44:41;;;;;;;2.00;1.65;;;19.50;99.90;;;;;;5029351;28;20053;-73
2023/06/24 00:47:30;;;;;;;1.98;1.50;;;19.50;99.90;;;;;;5013032;28;20034;-73
2023/06/24 00:50:16;;;;;;;2.78;1.23;;;19.40;99.90;;;;;;5021765;28;20061;-74
2023/06/24 00:53:02;;;;;;;1.90;1.10;;;19.40;99.90;;;;;;5012250;28;20049;-73
2023/06/24 00:55:48;;;;;;;2.40;1.52;;;19.40;99.90;;;;;;5016364;28;20402;-74
2023/06/24 00:58:36;;;;;;;2.15;1.25;;;19.40;99.90;;;;;;5030241;28;20044;-72
2023/06/24 01:01:24;;;;;;;2.65;1.70;;;19.30;99.90;;;;;;5028982;28;20152;-73
2023/06/24 01:04:09;;;;;;;1.67;1.20;;;19.30;99.90;;;;;;5028720;28;20084;-73
2023/06/24 01:06:57;;;;;;;2.00;1.27;;;19.30;99.90;;;;;;5013117;28;20356;-73
2023/06/24 01:09:43;;;;;;;1.75;1.20;;;19.30;99.90;;;;;;5019867;28;20513;-76
2023/06/24 01:12:29;;;;;;;2.95;1.75;;;19.30;99.90;;;;;;5011204;28;20041;-76
2023/06/24 01:15:16;;;;;;;1.42;1.02;;;19.20;99.90;;;;;;5015000;28;20452;-76
2023/06/24 01:18:13;;;;;;;5.75;2.38;;;19.20;99.90;;;;;;5011361;28;20036;-76
2023/06/24 01:21:13;;;;;;;6.20;3.03;;;19.20;99.90;;;;;;5022506;28;20072;-77
2023/06/24 01:24:28;;;;;;;5.38;3.28;;;19.20;99.90;;;;;;5024061;28;20084;-77
2023/06/24 01:27:19;;;;;;;5.55;3.30;;;19.20;99.90;;;;;;4997256;28;20042;-76
2023/06/24 01:30:23;;;;;;;4.97;2.80;;;19.20;99.90;;;;;;5016011;28;20042;-75
2023/06/24 01:33:18;;;;;;;6.43;4.20;;;19.20;99.90;;;;;;5010816;28;20041;-75
2023/06/24 01:36:06;;;;;;;;;;;19.20;99.90;;;;;;5018702;28;20033;-76
2023/06/24 01:39:03;;;;;;;6.45;4.43;;;19.10;99.90;;;;;;5029053;28;19920;-77
2023/06/24 01:42:00;;;;;;;7.40;4.90;;;19.10;99.90;;;;;;5029093;28;20037;-76
2023/06/24 01:44:48;;;;;;;6.57;4.90;;;19.10;99.90;;;;;;5022283;28;20140;-76
2023/06/24 01:47:34;;;;;;;7.22;5.07;;;19.10;99.90;;;;;;5014187;28;20034;-77
2023/06/24 01:50:23;;;;;;;8.65;5.90;;;19.10;99.90;;;;;;5024388;28;20687;-76
2023/06/24 01:53:13;;;;;;;7.93;5.20;;;19.00;99.90;;;;;;5009986;28;20413;-77
2023/06/24 01:56:01;;;;;;;8.30;5.88;;;19.00;99.90;;;;;;5010816;28;20083;-73
2023/06/24 01:58:50;;;;;;;8.10;5.53;;;19.00;99.90;;;;;;5027305;28;20034;-72
2023/06/24 02:01:38;;;;;;;7.85;5.30;;;19.00;99.90;;;;;;5019791;28;20376;-72
2023/06/24 02:04:26;;;;;;;8.27;5.75;;;19.00;99.90;;;;;;5027047;28;20132;-72
2023/06/24 02:07:12;;;;;;;8.57;5.35;;;19.00;99.90;;;;;;5012037;28;20037;-72
2023/06/24 02:10:00;;;;;;;7.97;5.85;;;19.00;99.90;;;;;;5022509;28;20065;-71
2023/06/24 02:12:49;;;;;;;8.55;6.15;;;19.00;99.90;;;;;;5014332;28;20029;-74
2023/06/24 02:15:38;;;;;;;9.25;6.78;;;18.90;99.90;;;;;;5023503;28;20128;-73
2023/06/24 02:18:26;;;;;;;8.82;6.53;;;18.90;99.90;;;;;;5018375;28;20045;-73
2023/06/24 02:21:13;;;;;;;10.02;7.13;;;18.80;99.90;;;;;;5019729;28;20077;-73
2023/06/24 02:24:00;;;;;;;9.15;7.03;;;18.70;99.90;;;;;;5009537;28;20046;-74
2023/06/24 02:26:47;;;;;;;9.13;7.10;;;18.60;99.90;;;;;;5011130;28;20038;-73
2023/06/24 02:29:35;;;;;;;10.18;6.57;;;18.60;99.90;;;;;;5012347;28;20033;-73
2023/06/24 02:32:21;;;;;;;9.88;7.25;;;18.60;99.90;;;;;;5010303;28;20054;-73
2023/06/24 02:35:08;;;;;;;9.70;8.55;;;18.60;99.90;;;;;;5009966;28;20124;-75
2023/06/24 02:37:53;;;;;;;10.82;8.20;;;18.50;99.90;;;;;;5027172;28;20038;-74
2023/06/24 02:40:39;;;;;;;13.02;8.27;;;18.50;99.90;;;;;;5010653;28;20181;-74
2023/06/24 02:43:25;;;;;;;9.43;7.25;;;18.50;99.90;;;;;;5008053;28;20080;-75
2023/06/24 02:46:11;;;;;;;11.50;7.10;;;18.40;99.90;;;;;;5021728;28;20030;-73
2023/06/24 02:48:58;;;;;;;10.15;7.47;;;18.40;99.90;;;;;;5009530;28;20036;-75
2023/06/24 02:51:44;;;;;;;11.85;8.25;;;18.40;99.90;;;;;;5010074;28;20104;-76
2023/06/24 02:54:31;;;;;;;11.57;7.38;;;18.40;99.90;;;;;;5008910;28;20470;-74
2023/06/24 02:57:20;;;;;;;11.02;6.68;;;18.30;99.90;;;;;;5017006;28;20030;-75
2023/06/24 03:00:12;;;;;;;9.57;6.93;;;18.30;99.90;;;;;;5014600;28;20110;-73
2023/06/24 03:02:59;;;;;;;10.73;7.20;;;18.30;99.90;;;;;;5015347;28;20490;-73
2023/06/24 03:05:48;;;;;;;8.98;6.85;;;18.30;99.90;;;;;;5014354;28;20438;-73
2023/06/24 03:08:34;;;;;;;10.93;6.53;;;18.20;99.90;;;;;;5018824;28;20128;-73
2023/06/24 03:11:20;;;;;;;8.52;5.88;;;18.20;99.90;;;;;;5019874;28;20049;-72
2023/06/24 03:14:06;;;;;;;9.68;6.57;;;18.20;99.90;;;;;;5028238;28;20045;-74
2023/06/24 03:16:52;;;;;;;9.85;6.50;;;18.20;99.90;;;;;;5028244;28;20067;-73
2023/06/24 03:19:38;;;;;;;8.63;5.55;;;18.20;99.90;;;;;;5027384;28;20083;-72
2023/06/24 03:22:24;;;;;;;10.25;6.18;;;18.20;99.90;;;;;;5024696;28;20041;-72
2023/06/24 03:25:10;;;;;;;8.23;5.50;;;18.20;99.90;;;;;;5011865;28;20037;-72
2023/06/24 03:27:56;;;;;;;8.20;5.95;;;18.20;99.90;;;;;;5016284;28;20049;-73
2023/06/24 03:30:42;;;;;;;9.30;6.28;;;18.20;99.90;;;;;;5023322;28;20030;-74
2023/06/24 03:33:28;;;;;;;8.27;5.70;;;18.20;99.90;;;;;;5019558;28;20068;-74
2023/06/24 03:36:14;;;;;;;10.23;5.97;;;18.20;99.90;;;;;;5009959;28;20037;-73
2023/06/24 03:39:00;;;;;;;8.52;6.80;;;18.20;99.90;;;;;;5012996;28;20406;-72
2023/06/24 03:41:46;;;;;;;9.32;6.45;;;18.20;99.90;;;;;;5023060;28;20052;-73
2023/06/24 03:44:31;;;;;;;10.45;6.28;;;18.20;99.90;;;;;;5028695;28;20041;-73
2023/06/24 03:47:17;;;;;;;7.50;5.63;;;18.20;99.90;;;;;;5011647;28;20040;-73
2023/06/24 03:50:04;;;;;;;8.57;5.70;;;18.20;99.90;;;;;;5017570;28;20041;-73
2023/06/24 03:52:50;;;;;;;8.23;6.40;;;18.20;99.90;;;;;;5028164;28;20026;-72
2023/06/24 03:55:36;;;;;;;11.50;6.38;;;18.20;99.90;;;;;;5030481;28;20029;-73
2023/06/24 03:58:22;;;;;;;17.13;6.97;;;18.10;99.90;;;;;;5032557;28;20034;-73
2023/06/24 04:01:09;;;;;;;8.73;5.85;;;18.10;99.90;;;;;;5031756;28;20088;-73
2023/06/24 04:03:55;;;;;;;11.30;6.90;;;18.10;99.90;;;;;;5032150;28;20418;-73
2023/06/24 04:06:41;;;;;;;8.68;6.07;;;18.10;99.90;;;;;;5030067;28;20033;-77
2023/06/24 04:09:29;;;;;;;11.32;7.22;;;18.10;99.90;;;;;;5025097;28;20124;-71
2023/06/24 04:12:15;;;;;;;8.68;6.80;;;18.10;99.90;;;;;;5013308;28;20446;-72
2023/06/24 04:15:03;;;;;;;9.10;6.30;;;18.00;99.90;;;;;;5011884;28;20455;-71
2023/06/24 04:17:49;;;;;;;9.63;6.70;;;18.00;99.90;;;;;;5012540;28;20403;-75
2023/06/24 04:20:35;;;;;;;10.38;6.90;;;18.10;99.90;;;;;;5015457;28;20045;-76
2023/06/24 04:23:21;;;;;;;9.52;6.35;;;18.10;99.90;;;;;;5011286;28;20491;-75
2023/06/24 04:26:07;;;;;;;10.20;6.82;;;18.00;99.90;;;;;;5019222;28;20033;-75
2023/06/24 04:28:53;;;;;;;8.88;5.88;;;18.00;99.90;;;;;;5030015;28;20044;-74
2023/06/24 04:31:39;;;;;;;10.05;6.57;;;18.00;99.90;;;;;;5031248;28;20045;-75
2023/06/24 04:34:25;;;;;;;12.15;6.32;;;18.00;99.90;;;;;;5030230;28;20520;-75
2023/06/24 04:37:11;;;;;;;11.23;7.10;;;18.00;99.90;;;;;;5030350;28;20033;-75
2023/06/24 04:39:57;;;;;;;11.13;7.35;;;18.10;99.90;;;;;;5029523;28;20037;-75
2023/06/24 04:42:43;;;;;;;10.27;6.93;;;18.10;99.90;;;;;;5026274;28;20095;-75
2023/06/24 04:45:29;;;;;;;12.07;6.88;;;18.10;99.90;;;;;;5011210;28;20402;-72
2023/06/24 04:48:15;;;;;;;10.65;6.45;;;18.10;99.90;;;;;;5022955;28;20037;-74
2023/06/24 04:51:01;;;;;;;12.00;7.47;;;18.00;99.90;;;;;;5025037;28;20030;-74
2023/06/24 04:53:46;;;;;;;10.65;7.07;;;18.00;99.90;;;;;;5011787;28;20064;-74
2023/06/24 04:56:32;;;;;;;15.93;6.95;;;18.00;99.90;;;;;;5014836;28;20082;-74
2023/06/24 04:59:18;;;;;;;9.52;6.75;;;17.90;99.90;;;;;;5018683;28;20029;-74
2023/06/24 05:02:04;;;;;;;13.48;8.35;;;17.90;99.90;;;;;;5015994;28;20046;-74
2023/06/24 05:04:51;;;;;;;9.00;6.55;;;18.00;99.90;;;;;;5009968;28;20046;-75
2023/06/24 05:07:39;;;;;;;13.85;7.78;;;18.10;99.90;;;;;;5014591;28;20076;-74
2023/06/24 05:10:25;;;;;;;12.00;7.22;;;18.10;99.90;;;;;;5025580;28;20496;-71
2023/06/24 05:13:11;;;;;;;11.23;7.57;;;18.20;99.90;;;;;;5021037;28;20513;-71
2023/06/24 05:15:56;;;;;;;11.38;6.65;;;18.20;99.90;;;;;;5018218;28;20398;-71
2023/06/24 05:18:44;;;;;;;11.45;6.05;;;18.30;99.90;;;;;;5031208;28;20052;-72
2023/06/24 05:21:30;;;;;;;10.32;6.57;;;18.30;99.90;;;;;;5022319;28;20033;-72
2023/06/24 05:24:16;;;;;;;11.70;7.60;;;18.40;99.90;;;;;;5020440;28;20518;-71
2023/06/24 05:27:06;;;;;;;11.85;7.13;;;18.40;99.90;;;;;;5015531;28;20105;-72
2023/06/24 05:29:52;;;;;;;10.43;6.95;;;18.50;99.90;;;;;;5022247;28;20044;-72
2023/06/24 05:32:38;;;;;;;10.73;6.40;;;18.40;99.90;;;;;;5015972;28;20052;-72
2023/06/24 05:35:24;;;;;;;12.40;6.93;;;18.50;99.90;;;;;;5017429;28;20086;-72
2023/06/24 05:38:10;;;;;;;10.52;7.10;;;18.50;99.90;;;;;;5020182;28;20413;-72
2023/06/24 05:40:56;;;;;;;11.52;7.63;;;18.60;99.90;;;;;;5026855;28;20049;-72
2023/06/24 05:43:44;;;;;;;10.38;7.85;;;18.70;99.90;;;;;;5016608;28;20037;-72
2023/06/24 05:46:31;;;;;;;8.95;6.78;;;18.60;99.90;;;;;;5021859;28;20125;-70
2023/06/24 05:49:17;;;;;;;10.20;6.28;;;18.70;99.90;;;;;;5017482;28;20038;-72
2023/06/24 05:52:03;;;;;;;11.40;6.10;;;18.80;99.90;;;;;;5017865;28;20475;-72
2023/06/24 05:54:49;;;;;;;11.45;7.13;;;18.90;99.90;;;;;;5020115;28;20040;-72
2023/06/24 05:57:35;;;;;;;12.82;7.53;;;19.00;99.90;;;;;;5018124;28;20052;-72
2023/06/24 06:00:21;;;;;;;12.07;6.60;;;19.10;99.90;;;;;;5028272;28;20083;-72
2023/06/24 06:03:07;;;;;;;19.63;7.78;;;19.20;99.90;;;;;;5011499;28;20037;-72
2023/06/24 06:05:53;;;;;;;8.75;6.20;;;19.40;99.90;;;;;;5011223;28;20037;-73
2023/06/24 06:08:38;;;;;;;11.23;6.13;;;19.40;99.90;;;;;;5011347;28;20053;-73
2023/06/24 06:11:24;;;;;;;10.75;6.43;;;19.50;99.90;;;;;;5027652;28;20417;-73
2023/06/24 06:14:10;;;;;;;8.57;6.57;;;19.40;99.90;;;;;;5030261;28;20041;-73
2023/06/24 06:16:56;;;;;;;10.73;6.43;;;19.50;99.90;;;;;;5019271;28;20064;-73
2023/06/24 06:19:46;;;;;;;9.48;6.47;;;19.50;99.90;;;;;;5028933;28;20025;-73
2023/06/24 06:22:37;;;;;;;11.65;7.10;;;19.50;99.90;;;;;;5028171;28;20095;-74
2023/06/24 06:25:23;;;;;;;8.65;6.50;;;19.50;99.90;;;;;;5026924;28;20052;-74
2023/06/24 06:28:09;;;;;;;9.05;5.75;;;19.50;99.90;;;;;;5029884;28;20033;-75
2023/06/24 06:30:56;;;;;;;8.95;5.60;;;19.50;99.90;;;;;;5016512;28;20061;-73
2023/06/24 06:33:43;;;;;;;10.50;7.03;;;19.60;99.90;;;;;;5017258;28;20120;-71
2023/06/24 06:36:29;;;;;;;9.68;5.47;;;19.60;99.90;;;;;;5014089;28;20536;-66
2023/06/24 06:39:15;;;;;;;6.88;5.25;;;19.70;99.90;;;;;;5026203;28;20111;-67
2023/06/24 06:42:01;;;;;;;9.38;6.18;;;19.70;99.90;;;;;;5013312;28;20076;-64
2023/06/24 06:44:47;;;;;;;8.80;5.75;;;19.70;99.90;;;;;;5020228;28;20469;-65
2023/06/24 06:47:33;;;;;;;7.97;5.38;;;19.70;99.90;;;;;;5019936;28;20026;-65
2023/06/24 06:50:19;;;;;;;8.45;5.03;;;19.70;99.90;;;;;;5010288;28;20041;-66
2023/06/24 06:53:05;;;;;;;8.27;5.65;;;19.70;99.90;;;;;;5010527;28;20136;-67
2023/06/24 06:55:51;;;;;;;12.68;6.50;;;19.80;99.90;;;;;;5015194;28;20153;-66
2023/06/24 06:58:38;;;;;;;9.77;6.13;;;19.90;99.90;;;;;;5021943;28;20037;-66
2023/06/24 07:01:24;;;;;;;9.45;5.50;;;19.90;99.90;;;;;;5011169;28;20029;-67
2023/06/24 07:04:10;;;;;;;7.30;5.88;;;20.00;99.90;;;;;;5016028;28;20124;-67
2023/06/24 07:06:56;;;;;;;8.20;5.32;;;20.10;99.90;;;;;;5022064;28;20110;-67
2023/06/24 07:09:42;;;;;;;9.90;5.88;;;20.10;99.90;;;;;;5009360;28;20087;-67
2023/06/24 07:12:27;;;;;;;9.38;6.82;;;20.10;99.90;;;;;;5019809;28;20045;-68
2023/06/24 07:15:14;;;;;;;10.95;6.20;;;20.20;99.90;;;;;;5016974;28;20037;-67
2023/06/24 07:18:00;;;;;;;8.00;5.55;;;20.20;99.90;;;;;;5013381;28;20061;-67
2023/06/24 07:20:46;;;;;;;9.73;5.45;;;20.20;99.90;;;;;;5014455;28;20029;-67
2023/06/24 07:23:31;;;;;;;9.30;5.90;;;20.30;99.90;;;;;;5009675;28;20077;-66
2023/06/24 07:26:17;;;;;;;7.53;4.97;;;20.30;99.90;;;;;;5018351;28;20022;-66
2023/06/24 07:29:06;;;;;;;7.25;5.38;;;20.40;99.90;;;;;;5026915;28;20045;-67
2023/06/24 07:31:52;;;;;;;7.80;4.97;;;20.40;99.90;;;;;;5019293;28;20046;-67
2023/06/24 07:34:38;;;;;;;8.50;5.45;;;20.40;99.90;;;;;;5025195;28;20411;-67
2023/06/24 07:37:24;;;;;;;6.38;4.47;;;20.50;99.90;;;;;;5014373;28;20064;-67
2023/06/24 07:40:10;;;;;;;7.88;4.70;;;20.50;99.90;;;;;;5022535;28;20026;-68
2023/06/24 07:42:56;;;;;;;6.30;4.28;;;20.50;99.90;;;;;;5019286;28;20030;-67
2023/06/24 07:45:43;;;;;;;5.68;4.20;;;20.60;99.90;;;;;;5020152;28;20449;-66
2023/06/24 07:48:29;;;;;;;6.28;4.78;;;20.60;99.90;;;;;;5012986;28;20041;-63
2023/06/24 07:51:14;;;;;;;5.85;4.43;;;20.70;99.90;;;;;;5021004;28;20042;-66
2023/06/24 07:54:01;;;;;;;6.55;4.40;;;20.70;99.90;;;;;;5013713;28;20512;-66
2023/06/24 07:56:47;;;;;;;8.68;4.78;;;20.70;99.90;;;;;;5013577;28;20038;-66
2023/06/24 07:59:33;;;;;;;7.85;4.35;;;20.90;99.90;;;;;;5017533;28;20077;-66
2023/06/24 08:02:19;;;;;;;6.88;4.78;;;21.00;99.90;;;;;;5026468;28;20048;-67
2023/06/24 08:05:05;;;;;;;6.88;4.57;;;21.20;99.90;;;;;;5013274;28;20884;-66
2023/06/24 08:07:52;;;;;;;7.53;4.10;;;21.20;99.90;;;;;;5028602;28;20025;-66
2023/06/24 08:10:37;;;;;;;10.05;4.75;;;21.30;99.90;;;;;;5022249;28;20041;-68
2023/06/24 08:13:24;;;;;;;8.60;4.65;;;21.40;99.90;;;;;;5013802;28;20100;-67
2023/06/24 08:16:09;;;;;;;8.40;4.30;;;21.40;99.90;;;;;;5013035;28;20121;-66
2023/06/24 08:18:55;;;;;;;6.85;4.72;;;21.40;99.90;;;;;;5012476;28;20040;-68
2023/06/24 08:21:41;;;;;;;5.65;4.00;;;21.50;99.90;;;;;;5012485;28;20491;-68
2023/06/24 08:24:27;;;;;;;5.80;4.13;;;21.50;99.90;;;;;;5011102;28;20144;-68
2023/06/24 08:34:19;;;;;;;8.52;4.57;;;21.80;99.90;;;;;;5025666;28;20045;-68
2023/06/24 08:37:05;;;;;;;7.32;3.90;;;21.80;99.90;;;;;;5011763;28;20040;-67
2023/06/24 08:39:51;;;;;;;7.47;4.50;;;21.80;99.90;;;;;;5011588;28;20029;-68
2023/06/24 08:42:37;;;;;;;4.97;3.33;;;21.80;99.90;;;;;;5026259;28;20091;-68
2023/06/24 08:45:23;;;;;;;6.65;3.75;;;21.80;99.90;;;;;;5014844;28;20478;-67
2023/06/24 08:48:41;;;;;;;5.03;3.75;;;21.90;99.90;;;;;;5024715;28;20478;-68
2023/06/24 08:51:31;;;;;;;6.90;3.65;;;21.90;99.90;;;;;;5014709;28;20065;-68
2023/06/24 08:54:20;;;;;;;7.78;4.28;;;22.00;99.70;;;;;;5013108;28;20032;-68
2023/06/24 08:57:07;;;;;;;5.15;3.42;;;22.10;99.60;;;;;;5017662;28;20065;-67
2023/06/24 08:59:53;;;;;;;5.68;4.03;;;22.10;99.70;;;;;;5018863;28;20040;-67
2023/06/24 09:02:39;;;;;;;6.13;4.07;;;22.20;99.50;;;;;;5014497;28;20076;-67
2023/06/24 09:05:25;;;;;;;5.32;4.15;;;22.20;98.90;;;;;;5014866;28;20048;-68
2023/06/24 09:08:11;;;;;;;5.15;3.60;;;22.30;98.90;;;;;;5026876;28;20068;-68
2023/06/24 09:10:57;;;;;;;6.03;3.70;;;22.30;98.40;;;;;;5012191;28;20125;-66
2023/06/24 09:13:43;;;;;;;5.53;3.28;;;22.40;97.60;;;;;;5010996;28;20041;-65
2023/06/24 09:16:29;;;;;;;5.63;3.55;;;22.40;97.80;;;;;;5015120;28;20056;-66
2023/06/24 09:19:20;;;;;;;6.35;3.75;;;22.50;97.50;;;;;;5015555;28;20048;-66
2023/06/24 09:22:07;;;;;;;6.03;3.80;;;22.50;97.30;;;;;;5010941;28;20039;-65
2023/06/24 09:24:54;;;;;;;5.20;3.13;;;22.50;97.40;;;;;;5010375;28;20049;-65
2023/06/24 09:27:40;;;;;;;7.53;3.78;;;22.50;96.90;;;;;;5020086;28;20022;-65
2023/06/24 09:30:26;;;;;;;5.15;3.30;;;22.50;96.70;;;;;;5013466;28;20045;-65
2023/06/24 09:33:12;;;;;;;5.55;3.58;;;22.50;96.20;;;;;;5015153;28;20517;-64
2023/06/24 09:35:58;;;;;;;4.75;3.30;;;22.50;96.30;;;;;;5012424;28;20028;-64
2023/06/24 09:38:44;;;;;;;4.32;3.60;;;22.50;96.60;;;;;;5010864;28;20033;-65
2023/06/24 09:41:30;;;;;;;5.07;3.15;;;22.50;95.70;;;;;;5014112;28;20034;-65
2023/06/24 09:44:20;;;;;;;4.47;3.15;;;22.50;95.50;;;;;;5013691;28;20081;-65
2023/06/24 09:47:06;;;;;;;8.57;3.45;;;22.50;95.30;;;;;;5011528;28;20041;-65
2023/06/24 09:49:53;;;;;;;4.60;3.22;;;22.50;95.40;;;;;;5010062;28;20045;-65
2023/06/24 09:52:40;;;;;;;5.30;3.03;;;22.60;95.20;;;;;;5009767;28;20032;-66
2023/06/24 09:55:27;;;;;;;4.72;2.92;;;22.60;95.20;;;;;;5012313;28;20033;-65
2023/06/24 09:58:15;;;;;;;6.25;3.28;;;22.70;94.70;;;;;;5016237;28;20053;-65
2023/06/24 10:01:04;;;;;;;4.40;2.97;;;22.80;94.70;;;;;;5029442;28;20044;-64
2023/06/24 10:03:50;;;;;;;4.53;2.72;;;22.70;94.60;;;;;;5013156;28;20140;-64
2023/06/24 10:06:36;;;;;;;3.95;2.60;;;22.70;93.50;;;;;;5021893;28;20033;-64
2023/06/24 10:09:22;;;;;;;5.35;2.85;;;22.70;93.40;;;;;;5010861;28;20049;-63
2023/06/24 10:12:08;;;;;;;4.88;3.10;;;22.80;93.10;;;;;;5010769;28;20030;-65
2023/06/24 10:14:55;;;;;;;3.83;2.70;;;22.80;92.90;;;;;;5023068;28;20045;-65
2023/06/24 10:17:41;;;;;;;5.90;3.35;;;22.80;92.90;;;;;;5009841;28;20034;-65
2023/06/24 10:20:27;;;;;;;4.00;2.80;;;22.80;93.10;;;;;;5012639;28;20076;-65
2023/06/24 10:23:13;;;;;;;5.28;2.80;;;22.90;93.60;;;;;;5018489;28;20376;-65
2023/06/24 10:25:59;;;;;;;7.68;2.80;;;22.90;93.20;;;;;;5020161;28;20087;-66
2023/06/24 10:29:06;;;;;;;4.32;2.80;;;22.90;92.40;;;;;;5023322;28;20056;-65
2023/06/24 10:31:53;;;;;;;3.20;2.45;;;23.00;93.10;;;;;;5012290;28;20075;-65
2023/06/24 10:34:46;;;;;;;6.65;3.13;;;23.00;92.80;;;;;;5009396;28;20045;-65
2023/06/24 10:37:33;;;;;;;4.07;2.65;;;23.10;92.20;;;;;;5018091;28;20510;-64
2023/06/24 10:40:38;;;;;;;3.78;2.30;;;23.10;92.60;;;;;;5011558;28;20749;-65
2023/06/24 10:43:24;;;;;;;5.57;2.90;;;23.20;92.40;;;;;;5016966;28;20052;-65
2023/06/24 10:46:16;;;;;;;4.70;2.92;;;23.20;92.10;;;;;;5017648;28;20053;-64
2023/06/24 10:49:01;;;;;;;5.07;2.70;;;23.30;92.10;;;;;;5025656;28;20029;-64
2023/06/24 10:51:47;;;;;;;3.80;2.60;;;23.30;91.90;;;;;;5023895;28;20043;-65
2023/06/24 10:54:34;;;;;;;4.30;2.33;;;23.30;91.70;;;;;;5030528;28;20128;-65
2023/06/24 10:57:27;;;;;;;4.25;2.97;;;23.40;91.60;;;;;;5025960;28;20072;-68
2023/06/24 11:00:14;;;;;;;4.03;2.88;;;23.40;91.70;;;;;;5023163;28;20080;-67
2023/06/24 11:03:15;;;;;;;5.63;3.17;;;23.50;91.60;;;;;;5026163;28;20033;-68
2023/06/24 11:06:04;;;;;;;5.22;2.97;;;23.50;91.60;;;;;;5010812;28;20483;-68
2023/06/24 11:08:50;;;;;;;5.72;3.00;;;23.50;91.60;;;;;;5028289;28;20049;-68
2023/06/24 11:11:37;;;;;;;8.25;3.58;;;23.50;91.70;;;;;;5012465;28;20065;-69
2023/06/24 11:14:23;;;;;;;4.15;3.05;;;23.60;92.10;;;;;;5016174;28;20482;-68
2023/06/24 11:17:09;;;;;;;4.78;2.90;;;23.70;91.90;;;;;;5011192;28;20561;-68
2023/06/24 11:19:57;;;;;;;4.22;3.17;;;23.70;91.30;;;;;;5008758;28;20475;-68
2023/06/24 11:22:44;;;;;;;4.53;2.75;;;23.80;91.30;;;;;;5019584;28;20057;-68
2023/06/24 11:25:30;;;;;;;4.32;2.75;;;23.80;91.20;;;;;;5020239;28;20380;-68
2023/06/24 11:28:19;;;;;;;4.20;2.90;;;23.80;90.40;;;;;;5020233;28;20113;-68
2023/06/24 11:31:10;;;;;;;4.13;2.80;;;23.90;90.70;;;;;;5017224;28;20052;-68
2023/06/24 11:33:56;;;;;;;6.03;3.10;;;23.80;90.50;;;;;;5026891;28;20111;-68
2023/06/24 11:36:42;;;;;;;4.50;2.65;;;23.80;90.40;;;;;;5018108;28;20112;-68
2023/06/24 11:39:28;;;;;;;5.18;3.35;;;23.90;90.50;;;;;;5008343;28;20069;-70
2023/06/24 11:42:14;;;;;;;7.30;2.97;;;24.00;90.40;;;;;;5025560;28;20033;-71
2023/06/24 11:45:05;;;;;;;6.43;2.70;;;24.00;90.60;;;;;;5022531;28;20498;-71
2023/06/24 11:47:52;;;;;;;10.70;2.80;;;24.10;90.50;;;;;;5009599;28;20064;-69
2023/06/24 11:50:38;;;;;;;4.78;2.97;;;24.10;90.40;;;;;;5016868;28;20408;-70
2023/06/24 11:53:49;;;;;;;4.00;2.58;;;24.20;89.80;;;;;;5015702;28;20057;-69
2023/06/24 11:56:40;;;;;;;3.33;2.67;;;24.20;89.40;;;;;;5023887;28;20112;-69
2023/06/24 11:59:27;;;;;;;4.03;2.80;;;24.30;90.00;;;;;;5015151;28;20399;-66
2023/06/24 12:02:14;;;;;;;4.05;2.70;;;24.30;88.80;;;;;;5026354;28;20025;-69
2023/06/24 12:05:02;;;;;;;5.20;3.03;;;24.30;89.20;;;;;;5020871;28;21418;-69
2023/06/24 12:07:48;;;;;;;4.53;2.58;;;24.40;88.80;;;;;;5018298;28;20064;-67
2023/06/24 12:10:35;;;;;;;4.22;2.67;;;24.50;89.60;;;;;;5013344;28;20116;-66
2023/06/24 12:13:21;;;;;;;5.68;2.80;;;24.60;89.30;;;;;;5017367;28;20479;-67
2023/06/24 12:16:07;;;;;;;6.25;2.63;;;24.60;88.50;;;;;;5016768;28;20030;-67
2023/06/24 12:18:53;;;;;;;7.05;2.95;;;24.60;86.90;;;;;;5022962;28;20061;-70
2023/06/24 12:21:39;;;;;;;3.88;2.50;;;24.60;86.50;;;;;;5016634;28;20026;-68
2023/06/24 12:24:25;;;;;;;4.47;3.00;;;24.70;86.00;;;;;;5023731;28;20133;-68
2023/06/24 12:27:11;;;;;;;4.35;3.22;;;24.70;86.50;;;;;;5024801;28;20029;-70
2023/06/24 12:29:57;;;;;;;5.47;3.42;;;24.80;85.90;;;;;;5018085;28;20448;-68
2023/06/24 12:32:43;;;;;;;5.57;3.13;;;24.90;85.20;;;;;;5022085;28;20262;-68
2023/06/24 12:35:29;;;;;;;5.03;2.83;;;25.00;85.70;;;;;;5015537;28;20457;-68
2023/06/24 12:38:16;;;;;;;8.77;2.70;;;25.10;85.20;;;;;;5023557;28;20029;-68
2023/06/24 12:41:02;;;;;;;3.90;2.72;;;25.20;85.30;;;;;;5026567;28;20037;-68
2023/06/24 12:43:48;;;;;;;3.47;2.42;;;25.30;85.20;;;;;;5029788;28;20483;-68
2023/06/24 12:46:33;;;;;;;4.82;3.00;;;25.30;83.90;;;;;;5017018;28;20030;-68
2023/06/24 12:49:19;;;;;;;4.40;2.53;;;25.30;84.50;;;;;;5031576;28;20525;-68
2023/06/24 12:52:05;;;;;;;5.38;2.80;;;25.50;84.10;;;;;;5030509;28;20470;-68
2023/06/24 12:54:52;;;;;;;4.45;3.00;;;25.50;83.70;;;;;;5031361;28;20045;-69
2023/06/24 12:57:37;;;;;;;8.23;2.80;;;25.60;83.90;;;;;;5022832;28;20402;-68
2023/06/24 13:00:24;;;;;;;5.30;2.97;;;25.60;82.80;;;;;;5024738;28;20150;-68
2023/06/24 13:03:10;;;;;;;6.13;3.33;;;25.70;82.60;;;;;;5027794;28;20040;-68
2023/06/24 13:05:57;;;;;;;4.13;2.90;;;25.80;83.00;;;;;;5020998;28;20175;-68
2023/06/24 13:08:43;;;;;;;5.07;3.20;;;25.80;82.20;;;;;;5015697;28;20039;-68
2023/06/24 13:11:29;;;;;;;6.28;2.65;;;25.90;82.00;;;;;;5011790;28;20475;-68
2023/06/24 13:14:15;;;;;;;4.55;2.97;;;26.00;82.70;;;;;;5014772;28;20116;-68
2023/06/24 13:17:01;;;;;;;3.75;2.70;;;26.20;82.70;;;;;;5017737;28;20482;-69
2023/06/24 13:19:47;;;;;;;4.30;2.92;;;26.20;81.50;;;;;;5017302;28;20390;-74
2023/06/24 13:22:33;;;;;;;4.20;2.85;;;26.30;80.60;;;;;;5009974;28;20548;-69
2023/06/24 13:25:19;;;;;;;6.28;2.85;;;26.30;80.90;;;;;;5012427;28;20088;-67
2023/06/24 13:28:05;;;;;;;5.68;3.38;;;26.40;81.30;;;;;;5013142;28;20030;-68
2023/06/24 13:30:54;;;;;;;4.85;3.22;;;26.50;80.90;;;;;;5020483;28;20132;-68
2023/06/24 13:33:40;;;;;;;6.53;2.72;;;26.60;79.30;;;;;;5023904;28;20030;-68
2023/06/24 13:36:32;;;;;;;2.83;2.10;;;26.60;79.70;;;;;;5016151;28;20034;-67
2023/06/24 13:39:18;;;;;;;5.15;3.10;;;26.70;78.60;;;;;;5015293;28;20773;-68
2023/06/24 13:42:04;;;;;;;4.25;2.67;;;26.80;78.80;;;;;;5015528;28;20100;-69
2023/06/24 13:44:50;;;;;;;3.70;2.42;;;26.90;78.20;;;;;;5015567;28;20819;-67
2023/06/24 13:47:37;;;;;;;6.35;3.25;;;27.00;78.20;;;;;;5018540;28;20107;-70
2023/06/24 13:50:23;;;;;;;5.18;2.67;;;27.00;77.50;;;;;;5016745;28;20053;-69
2023/06/24 13:53:08;;;;;;;4.13;2.95;;;27.00;78.10;;;;;;5027761;28;20099;-71
2023/06/24 13:55:55;;;;;;;5.00;3.17;;;27.10;77.90;;;;;;5019108;28;20038;-68
2023/06/24 13:58:40;;;;;;;6.18;2.70;;;27.20;77.20;;;;;;5022729;28;20041;-70
2023/06/24 14:01:29;;;;;;;7.25;3.08;;;27.30;76.70;;;;;;5019898;28;20034;-69
2023/06/24 14:04:15;;;;;;;5.35;2.72;;;27.30;76.30;;;;;;5012070;28;20041;-69
2023/06/24 14:07:02;;;;;;;5.80;2.50;;;27.40;76.20;;;;;;5014255;28;20049;-69
2023/06/24 14:09:48;;;;;;;4.72;3.25;;;27.60;75.50;;;;;;5028305;28;20044;-69
2023/06/24 14:12:34;;;;;;;3.60;2.65;;;27.60;75.20;;;;;;5008186;28;20494;-67
2023/06/24 14:15:23;;;;;;;4.22;2.97;;;27.60;75.30;;;;;;5016763;28;20087;-67
2023/06/24 14:18:10;;;;;;;4.22;2.90;;;27.70;74.70;;;;;;5022390;28;20047;-68
2023/06/24 14:20:55;;;;;;;4.00;2.50;;;27.70;73.50;;;;;;5016841;28;20176;-67
2023/06/24 14:23:41;;;;;;;3.83;2.50;;;27.70;72.80;;;;;;5017052;28;20116;-67
2023/06/24 14:26:27;;;;;;;4.22;2.75;;;27.80;72.60;;;;;;5019537;28;20044;-68
2023/06/24 14:29:13;;;;;;;5.55;2.75;;;27.80;72.80;;;;;;5023827;28;20167;-68
2023/06/24 14:31:59;;;;;;;4.78;2.47;;;27.80;72.50;;;;;;5019172;28;20379;-67
2023/06/24 14:34:45;;;;;;;11.02;3.58;;;27.90;72.60;;;;;;5009465;28;20038;-68